GCLPGCTS

Guest
Details From GCLP - Gran Canaria - Gando
To GCTS - Tenerife Sur
Flight Number -
Tags Routegen Generated
Created
Modified
Stats Distance 70 nm / 130 km
Max Altitude 100 ft / 30 m
Waypoints 12
Social Downloads 19
Likes 0
Share

Download

Looking for another format? Having issues loading an existing format? Contact us
Advertisement - Login to hide

Notes

Departing runway 20 GCLP. Arriving runway 6 GCTS.

Route

GCLP +27.85_-015.42 +27.81_-015.47 +27.78_-015.52 +27.77_-015.59 +27.78_-015.65 +27.81_-015.71 +27.94_-016.03 +28.06_-016.35 +28.08_-016.42 +28.08_-016.48 GCTS

ID Type Via Altitude (ft/m) Position (lat/lon) Dist (leg/tot) Name
O GCLP APT - 0 / 0 27.91887 / -15.39234 - / 0 nm
+27.85_-015.42 LATLON - 100 / 30 27.85146 / -15.42212 4 / 4 nm
+27.81_-015.47 LATLON - 100 / 30 27.80798 / -15.46534 3 / 7 nm
+27.78_-015.52 LATLON - 100 / 30 27.78019 / -15.52276 3 / 11 nm
+27.77_-015.59 LATLON - 100 / 30 27.77146 / -15.58744 3 / 14 nm
+27.78_-015.65 LATLON - 100 / 30 27.78282 / -15.65160 3 / 18 nm
+27.81_-015.71 LATLON - 100 / 30 27.81291 / -15.70751 3 / 21 nm
+27.94_-016.03 LATLON - 100 / 30 27.93616 / -16.03037 18 / 40 nm
+28.06_-016.35 LATLON - 100 / 30 28.05941 / -16.35322 18 / 59 nm
+28.08_-016.42 LATLON - 100 / 30 28.07778 / -16.41544 3 / 62 nm
+28.08_-016.48 LATLON - 100 / 30 28.07626 / -16.48103 3 / 66 nm
O GCTS APT - 0 / 0 28.04975 / -16.55734 4 / 70 nm

Altitude Profile

Advertisement - Login to hide

GCLP

Details ICAO GCLP (LPA)
Name Gran Canaria-Las Palmas Intl
Region Canary Islands
Timezone Atlantic/Canary (UTC+0.0)
Stats Elevation 78 ft / 24 m (AMSL)
Location 27.931600° -15.385600°
Runways 2
Magnetic Variation 4.329° W

METAR

GCLP 161030Z 01016KT 9999 FEW020 SCT035 19/08 Q1026 NOSIG

Decode

TAF

TAF GCLP 160800Z 1609/1709 03018KT 9999 BKN035 TX21/1614Z TN15/1707Z= TAF AMD KFBG 160812Z 1608/1708 26009KT 9999 OVC002 QNH2963INS BECMG 1609/1610 26009KT 0800 FG OVC002 QNH2963INS BECMG 1614/1615 28015G25KT 9999 NSW SCT030 BKN080 QNH2978INS BECMG 1622/1623 26009KT 9999 FEW070 QNH2992INS TX10/1621Z TNM01/1611Z

Decode

Departure Runways

ID Width Length Bearing (true/mag) Surface Threshold Overrun Markings Lighting
03L 148 ft / 45 m 10,201 ft / 3,109 m 21.35° / 25.68° ASPHALT 0 ft / 0 m 656 ft / 200 m PREC-APP CENTERLINE EDGE THRESHOLD ALSF-I REIL-OMNI
03R 148 ft / 45 m 10,180 ft / 3,103 m 21.32° / 25.65° ASPHALT 0 ft / 0 m 656 ft / 200 m PREC-APP CENTERLINE EDGE THRESHOLD ALSF-I REIL-OMNI
21L 148 ft / 45 m 10,180 ft / 3,103 m 201.33° / 205.65° ASPHALT 0 ft / 0 m 666 ft / 203 m PREC-APP CENTERLINE EDGE THRESHOLD MALS REIL-OMNI
21R 148 ft / 45 m 10,201 ft / 3,109 m 201.35° / 205.68° ASPHALT 0 ft / 0 m 738 ft / 225 m PREC-APP CENTERLINE EDGE THRESHOLD MALS REIL-OMNI

GCTS

Details ICAO GCTS (TFS)
Name Tenerife Sur-Reina Sofia
Region Canary Islands
Timezone Atlantic/Canary (UTC+0.0)
Stats Elevation 208 ft / 63 m (AMSL)
Location 28.044400° -16.572500°
Runways 1
Magnetic Variation 4.757° W

METAR

GCTS 161030Z 06018KT 9999 FEW030 19/08 Q1026 NOSIG

Decode

TAF

TAF GCTS 160800Z 1609/1709 07023KT 9999 FEW040 TX22/1614Z TN16/1707Z TEMPO 1609/1610 04013KT PROB40 TEMPO 1610/1618 07025G35KT BECMG 1618/1620 05013KT

Decode

Destination Runways

ID Width Length Bearing (true/mag) Surface Threshold Overrun Markings Lighting
07 148 ft / 45 m 10,489 ft / 3,197 m 68.47° / 73.23° ASPHALT 0 ft / 0 m 0 ft / 0 m PREC-APP CENTERLINE EDGE THRESHOLD CALVERT-ILS REIL-OMNI
25 148 ft / 45 m 10,489 ft / 3,197 m 248.49° / 253.25° ASPHALT 0 ft / 0 m 0 ft / 0 m PREC-APP CENTERLINE EDGE THRESHOLD CALVERT-ILS REIL-OMNI

Approach Navaids

Runway Type Ident Frequency Range Bearing (true/mag) Slope Elevation
07 LOC-ILS TRS 109.70 MHz 18 nm / 33 km 68.49° / 73.25 ° - 187 ft / 57 m (AMSL)
07 GS TRS 109.70 MHz 10 nm / 19 km 68.96° / 73.72 ° 3.00° 209 ft / 64 m (AMSL)
25 GS ISUR 110.90 MHz 10 nm / 19 km 248.96° / 253.72 ° 3.00° 236 ft / 72 m (AMSL)
25 LOC-ILS ISUR 110.90 MHz 18 nm / 33 km 248.52° / 253.27 ° - 209 ft / 64 m (AMSL)

Popular Alternatives